sensor_id;sensor_type;location;lat;lon;timestamp;pressure;altitude;pressure_sealevel;temperature;humidity
34065;BME280;20339;49.754;20.158;2022-07-29T00:01:23;96967.88;;;17.36;72.80
34065;BME280;20339;49.754;20.158;2022-07-29T00:03:55;96970.18;;;17.35;72.88
34065;BME280;20339;49.754;20.158;2022-07-29T00:06:26;96972.02;;;17.35;72.90
34065;BME280;20339;49.754;20.158;2022-07-29T00:08:58;96966.52;;;17.34;72.97
34065;BME280;20339;49.754;20.158;2022-07-29T00:11:29;96965.14;;;17.34;73.04
34065;BME280;20339;49.754;20.158;2022-07-29T00:14:01;96963.30;;;17.34;73.16
34065;BME280;20339;49.754;20.158;2022-07-29T00:16:33;96963.98;;;17.35;73.22
34065;BME280;20339;49.754;20.158;2022-07-29T00:19:05;96960.38;;;17.37;73.24
34065;BME280;20339;49.754;20.158;2022-07-29T00:21:37;96963.12;;;17.39;73.27
34065;BME280;20339;49.754;20.158;2022-07-29T00:24:11;96960.70;;;17.41;73.31
34065;BME280;20339;49.754;20.158;2022-07-29T00:26:44;96962.33;;;17.43;73.28
34065;BME280;20339;49.754;20.158;2022-07-29T00:29:18;96965.84;;;17.44;73.36
34065;BME280;20339;49.754;20.158;2022-07-29T00:31:52;96962.61;;;17.47;73.34
34065;BME280;20339;49.754;20.158;2022-07-29T00:34:26;96963.14;;;17.49;73.41
34065;BME280;20339;49.754;20.158;2022-07-29T00:37:17;96963.02;;;17.49;73.41
34065;BME280;20339;49.754;20.158;2022-07-29T00:39:49;96957.91;;;17.50;73.47
34065;BME280;20339;49.754;20.158;2022-07-29T00:42:22;96954.85;;;17.52;73.56
34065;BME280;20339;49.754;20.158;2022-07-29T00:44:56;96954.59;;;17.53;73.65
34065;BME280;20339;49.754;20.158;2022-07-29T00:47:30;96950.30;;;17.55;73.73
34065;BME280;20339;49.754;20.158;2022-07-29T00:50:06;96951.05;;;17.56;73.77
34065;BME280;20339;49.754;20.158;2022-07-29T00:52:41;96954.30;;;17.47;73.59
34065;BME280;20339;49.754;20.158;2022-07-29T00:55:15;96952.85;;;17.30;74.04
34065;BME280;20339;49.754;20.158;2022-07-29T00:57:48;96954.29;;;17.21;74.26
34065;BME280;20339;49.754;20.158;2022-07-29T01:00:23;96951.79;;;17.06;74.37
34065;BME280;20339;49.754;20.158;2022-07-29T01:03:02;96953.70;;;16.83;74.40
34065;BME280;20339;49.754;20.158;2022-07-29T01:05:36;96951.20;;;16.60;75.02
34065;BME280;20339;49.754;20.158;2022-07-29T01:08:10;96951.06;;;16.44;75.24
34065;BME280;20339;49.754;20.158;2022-07-29T01:10:46;96946.62;;;16.42;75.70
34065;BME280;20339;49.754;20.158;2022-07-29T01:13:20;96948.55;;;16.46;75.93
34065;BME280;20339;49.754;20.158;2022-07-29T01:15:56;96944.95;;;16.41;75.95
34065;BME280;20339;49.754;20.158;2022-07-29T01:18:33;96943.55;;;16.37;76.22
34065;BME280;20339;49.754;20.158;2022-07-29T01:21:32;96939.58;;;16.43;76.40
34065;BME280;20339;49.754;20.158;2022-07-29T01:24:33;96941.55;;;16.52;76.36
34065;BME280;20339;49.754;20.158;2022-07-29T01:27:14;96946.75;;;16.47;76.07
34065;BME280;20339;49.754;20.158;2022-07-29T01:29:56;96939.79;;;16.31;76.10
34065;BME280;20339;49.754;20.158;2022-07-29T01:32:31;96934.79;;;16.34;76.59
34065;BME280;20339;49.754;20.158;2022-07-29T01:35:07;96932.78;;;16.19;77.07
34065;BME280;20339;49.754;20.158;2022-07-29T01:37:48;96931.44;;;16.01;77.69
34065;BME280;20339;49.754;20.158;2022-07-29T01:40:24;96928.66;;;15.99;77.82
34065;BME280;20339;49.754;20.158;2022-07-29T01:43:00;96929.30;;;15.95;77.77
34065;BME280;20339;49.754;20.158;2022-07-29T01:45:40;96927.08;;;16.00;77.69
34065;BME280;20339;49.754;20.158;2022-07-29T01:48:15;96928.13;;;16.00;77.73
34065;BME280;20339;49.754;20.158;2022-07-29T01:50:53;96928.17;;;15.97;78.01
34065;BME280;20339;49.754;20.158;2022-07-29T01:53:31;96928.86;;;15.93;78.20
34065;BME280;20339;49.754;20.158;2022-07-29T01:56:04;96932.69;;;15.85;78.50
34065;BME280;20339;49.754;20.158;2022-07-29T01:58:40;96934.41;;;15.78;78.52
34065;BME280;20339;49.754;20.158;2022-07-29T02:01:14;96934.66;;;15.79;78.53
34065;BME280;20339;49.754;20.158;2022-07-29T02:03:49;96931.80;;;15.75;78.41
34065;BME280;20339;49.754;20.158;2022-07-29T02:06:22;96935.35;;;15.76;78.39
34065;BME280;20339;49.754;20.158;2022-07-29T02:08:55;96939.34;;;15.84;78.55
34065;BME280;20339;49.754;20.158;2022-07-29T02:11:28;96926.80;;;15.90;78.33
34065;BME280;20339;49.754;20.158;2022-07-29T02:14:01;96929.55;;;15.84;78.46
34065;BME280;20339;49.754;20.158;2022-07-29T02:16:34;96934.20;;;15.68;78.53
34065;BME280;20339;49.754;20.158;2022-07-29T02:19:11;96932.31;;;15.62;78.86
34065;BME280;20339;49.754;20.158;2022-07-29T02:21:46;96927.54;;;15.50;78.99
34065;BME280;20339;49.754;20.158;2022-07-29T02:24:19;96923.46;;;15.51;79.13
34065;BME280;20339;49.754;20.158;2022-07-29T02:26:53;96921.71;;;15.47;79.14
34065;BME280;20339;49.754;20.158;2022-07-29T02:29:28;96923.58;;;15.44;79.00
34065;BME280;20339;49.754;20.158;2022-07-29T02:32:00;96918.10;;;15.49;79.06
34065;BME280;20339;49.754;20.158;2022-07-29T02:34:33;96916.48;;;15.47;78.90
34065;BME280;20339;49.754;20.158;2022-07-29T02:37:05;96912.12;;;15.46;78.90
34065;BME280;20339;49.754;20.158;2022-07-29T02:39:43;96916.20;;;15.39;79.00
34065;BME280;20339;49.754;20.158;2022-07-29T02:42:17;96916.71;;;15.34;79.37
34065;BME280;20339;49.754;20.158;2022-07-29T02:44:50;96912.70;;;15.37;79.71
34065;BME280;20339;49.754;20.158;2022-07-29T02:47:24;96912.77;;;15.43;79.64
34065;BME280;20339;49.754;20.158;2022-07-29T02:50:04;96911.70;;;15.48;79.67
34065;BME280;20339;49.754;20.158;2022-07-29T02:52:44;96908.24;;;15.44;79.50
34065;BME280;20339;49.754;20.158;2022-07-29T02:55:22;96907.27;;;15.45;79.66
34065;BME280;20339;49.754;20.158;2022-07-29T02:58:00;96905.64;;;15.47;79.73
34065;BME280;20339;49.754;20.158;2022-07-29T03:00:35;96905.66;;;15.53;79.81
34065;BME280;20339;49.754;20.158;2022-07-29T03:03:11;96901.62;;;15.57;79.75
34065;BME280;20339;49.754;20.158;2022-07-29T03:05:43;96905.02;;;15.60;79.62
34065;BME280;20339;49.754;20.158;2022-07-29T03:08:16;96907.79;;;15.62;79.53
34065;BME280;20339;49.754;20.158;2022-07-29T03:10:51;96906.04;;;15.60;79.47
34065;BME280;20339;49.754;20.158;2022-07-29T03:13:24;96904.15;;;15.56;79.13
34065;BME280;20339;49.754;20.158;2022-07-29T03:15:57;96900.92;;;15.50;79.18
34065;BME280;20339;49.754;20.158;2022-07-29T03:18:29;96895.23;;;15.48;79.27
34065;BME280;20339;49.754;20.158;2022-07-29T03:21:01;96894.46;;;15.52;79.41
34065;BME280;20339;49.754;20.158;2022-07-29T03:23:33;96891.39;;;15.55;79.23
34065;BME280;20339;49.754;20.158;2022-07-29T03:26:05;96892.60;;;15.58;79.22
34065;BME280;20339;49.754;20.158;2022-07-29T03:28:36;96891.23;;;15.58;79.17
34065;BME280;20339;49.754;20.158;2022-07-29T03:31:07;96890.84;;;15.62;79.17
34065;BME280;20339;49.754;20.158;2022-07-29T03:33:38;96895.64;;;15.62;78.98
34065;BME280;20339;49.754;20.158;2022-07-29T03:36:09;96896.98;;;15.65;78.75
34065;BME280;20339;49.754;20.158;2022-07-29T03:38:42;96895.58;;;15.67;78.75
34065;BME280;20339;49.754;20.158;2022-07-29T03:41:16;96894.02;;;15.73;78.75
34065;BME280;20339;49.754;20.158;2022-07-29T03:43:49;96891.20;;;15.79;78.76
34065;BME280;20339;49.754;20.158;2022-07-29T03:46:22;96898.52;;;15.83;78.72
34065;BME280;20339;49.754;20.158;2022-07-29T03:48:58;96900.45;;;15.87;78.62
34065;BME280;20339;49.754;20.158;2022-07-29T03:51:30;96903.95;;;15.90;78.71
34065;BME280;20339;49.754;20.158;2022-07-29T03:54:02;96908.12;;;15.90;78.85
34065;BME280;20339;49.754;20.158;2022-07-29T03:56:37;96906.77;;;15.95;78.91
34065;BME280;20339;49.754;20.158;2022-07-29T03:59:10;96906.39;;;16.01;78.74
34065;BME280;20339;49.754;20.158;2022-07-29T04:01:42;96909.70;;;16.09;78.73
34065;BME280;20339;49.754;20.158;2022-07-29T04:04:14;96914.44;;;16.16;78.76
34065;BME280;20339;49.754;20.158;2022-07-29T04:06:47;96918.78;;;16.17;78.70
34065;BME280;20339;49.754;20.158;2022-07-29T04:09:18;96914.15;;;16.23;79.07
34065;BME280;20339;49.754;20.158;2022-07-29T04:11:49;96913.04;;;16.35;79.25
34065;BME280;20339;49.754;20.158;2022-07-29T04:14:21;96908.17;;;16.51;79.30
34065;BME280;20339;49.754;20.158;2022-07-29T04:16:54;96910.23;;;16.69;79.26
34065;BME280;20339;49.754;20.158;2022-07-29T04:19:27;96910.58;;;16.84;78.94
34065;BME280;20339;49.754;20.158;2022-07-29T04:21:59;96903.92;;;16.97;78.87
34065;BME280;20339;49.754;20.158;2022-07-29T04:24:30;96906.55;;;17.07;78.63
34065;BME280;20339;49.754;20.158;2022-07-29T04:27:01;96906.48;;;17.16;78.46
34065;BME280;20339;49.754;20.158;2022-07-29T04:29:33;96905.44;;;17.23;78.41
34065;BME280;20339;49.754;20.158;2022-07-29T04:32:04;96906.09;;;17.29;78.10
34065;BME280;20339;49.754;20.158;2022-07-29T04:34:36;96903.31;;;17.37;77.87
34065;BME280;20339;49.754;20.158;2022-07-29T04:37:07;96906.82;;;17.46;77.84
34065;BME280;20339;49.754;20.158;2022-07-29T04:39:38;96903.31;;;17.59;77.64
34065;BME280;20339;49.754;20.158;2022-07-29T04:42:09;96905.79;;;17.75;77.79
34065;BME280;20339;49.754;20.158;2022-07-29T04:44:40;96903.05;;;17.98;77.96
34065;BME280;20339;49.754;20.158;2022-07-29T04:47:11;96906.06;;;18.22;77.68
34065;BME280;20339;49.754;20.158;2022-07-29T04:49:42;96902.50;;;18.50;77.33
34065;BME280;20339;49.754;20.158;2022-07-29T04:52:13;96903.11;;;18.83;77.07
34065;BME280;20339;49.754;20.158;2022-07-29T04:54:46;96897.82;;;19.13;76.69
34065;BME280;20339;49.754;20.158;2022-07-29T04:57:17;96898.64;;;19.41;76.24
34065;BME280;20339;49.754;20.158;2022-07-29T04:59:48;96901.72;;;19.73;75.77
34065;BME280;20339;49.754;20.158;2022-07-29T05:02:19;96893.04;;;20.12;74.50
34065;BME280;20339;49.754;20.158;2022-07-29T05:04:51;96893.27;;;20.79;74.44
34065;BME280;20339;49.754;20.158;2022-07-29T05:07:23;96894.35;;;21.19;71.71
34065;BME280;20339;49.754;20.158;2022-07-29T05:09:54;96901.20;;;20.94;70.76
34065;BME280;20339;49.754;20.158;2022-07-29T05:12:26;96906.44;;;20.76;70.81
34065;BME280;20339;49.754;20.158;2022-07-29T05:14:57;96899.11;;;21.63;71.78
34065;BME280;20339;49.754;20.158;2022-07-29T05:17:29;96893.71;;;21.71;68.75
34065;BME280;20339;49.754;20.158;2022-07-29T05:20:00;96893.27;;;21.19;67.88
34065;BME280;20339;49.754;20.158;2022-07-29T05:22:31;96896.02;;;20.75;68.54
34065;BME280;20339;49.754;20.158;2022-07-29T05:25:02;96896.00;;;20.63;69.10
34065;BME280;20339;49.754;20.158;2022-07-29T05:27:33;96894.43;;;20.60;69.17
34065;BME280;20339;49.754;20.158;2022-07-29T05:30:06;96892.59;;;20.67;69.44
34065;BME280;20339;49.754;20.158;2022-07-29T05:32:37;96892.61;;;21.32;69.32
34065;BME280;20339;49.754;20.158;2022-07-29T05:35:10;96892.08;;;21.53;68.49
34065;BME280;20339;49.754;20.158;2022-07-29T05:37:41;96889.23;;;21.62;67.62
34065;BME280;20339;49.754;20.158;2022-07-29T05:40:13;96896.58;;;22.28;68.03
34065;BME280;20339;49.754;20.158;2022-07-29T05:42:44;96892.74;;;23.01;66.58
34065;BME280;20339;49.754;20.158;2022-07-29T05:45:15;96887.86;;;23.80;65.56
34065;BME280;20339;49.754;20.158;2022-07-29T05:47:46;96880.13;;;25.45;64.05
34065;BME280;20339;49.754;20.158;2022-07-29T05:50:18;96872.25;;;27.57;61.84
34065;BME280;20339;49.754;20.158;2022-07-29T05:52:49;96870.36;;;29.49;57.85
34065;BME280;20339;49.754;20.158;2022-07-29T05:55:23;96875.20;;;30.98;53.23
34065;BME280;20339;49.754;20.158;2022-07-29T05:57:54;96878.51;;;32.09;51.11
34065;BME280;20339;49.754;20.158;2022-07-29T06:00:26;96876.58;;;33.27;48.40
34065;BME280;20339;49.754;20.158;2022-07-29T06:02:58;96878.80;;;34.31;46.52
34065;BME280;20339;49.754;20.158;2022-07-29T06:05:29;96880.69;;;35.05;43.53
34065;BME280;20339;49.754;20.158;2022-07-29T06:08:01;96885.06;;;35.46;41.12
34065;BME280;20339;49.754;20.158;2022-07-29T06:10:32;96885.79;;;35.48;40.58
34065;BME280;20339;49.754;20.158;2022-07-29T06:13:04;96885.80;;;36.09;37.89
34065;BME280;20339;49.754;20.158;2022-07-29T06:15:35;96885.86;;;35.57;37.82
34065;BME280;20339;49.754;20.158;2022-07-29T06:18:08;96888.11;;;35.72;35.75
34065;BME280;20339;49.754;20.158;2022-07-29T06:20:40;96890.86;;;36.62;37.16
34065;BME280;20339;49.754;20.158;2022-07-29T06:23:12;96882.66;;;37.34;34.30
34065;BME280;20339;49.754;20.158;2022-07-29T06:25:43;96886.05;;;37.20;34.92
34065;BME280;20339;49.754;20.158;2022-07-29T06:28:16;96888.26;;;37.96;34.26
34065;BME280;20339;49.754;20.158;2022-07-29T06:30:48;96886.35;;;38.86;33.88
34065;BME280;20339;49.754;20.158;2022-07-29T06:33:20;96883.35;;;39.10;33.38
34065;BME280;20339;49.754;20.158;2022-07-29T06:35:52;96888.79;;;39.98;32.72
34065;BME280;20339;49.754;20.158;2022-07-29T06:38:28;96886.85;;;40.81;30.27
34065;BME280;20339;49.754;20.158;2022-07-29T06:41:01;96887.08;;;40.90;30.78
34065;BME280;20339;49.754;20.158;2022-07-29T06:43:41;96887.04;;;41.13;29.09
34065;BME280;20339;49.754;20.158;2022-07-29T06:46:15;96885.63;;;41.38;29.17
34065;BME280;20339;49.754;20.158;2022-07-29T06:48:50;96885.36;;;41.95;29.11
34065;BME280;20339;49.754;20.158;2022-07-29T06:51:28;96884.59;;;42.67;28.12
34065;BME280;20339;49.754;20.158;2022-07-29T06:54:02;96882.08;;;43.11;27.72
34065;BME280;20339;49.754;20.158;2022-07-29T06:56:37;96884.00;;;43.63;27.01
34065;BME280;20339;49.754;20.158;2022-07-29T06:59:15;96881.58;;;44.11;26.21
34065;BME280;20339;49.754;20.158;2022-07-29T07:01:53;96881.88;;;43.69;25.54
34065;BME280;20339;49.754;20.158;2022-07-29T07:04:26;96884.82;;;44.09;25.71
34065;BME280;20339;49.754;20.158;2022-07-29T07:07:04;96884.20;;;44.70;25.30
34065;BME280;20339;49.754;20.158;2022-07-29T07:09:42;96891.44;;;45.10;24.57
34065;BME280;20339;49.754;20.158;2022-07-29T07:12:20;96896.33;;;45.03;23.79
34065;BME280;20339;49.754;20.158;2022-07-29T07:14:56;96890.64;;;44.22;23.27
34065;BME280;20339;49.754;20.158;2022-07-29T07:17:28;96890.04;;;43.62;24.08
34065;BME280;20339;49.754;20.158;2022-07-29T07:20:00;96890.54;;;44.54;24.21
34065;BME280;20339;49.754;20.158;2022-07-29T07:22:32;96890.58;;;44.39;22.61
34065;BME280;20339;49.754;20.158;2022-07-29T07:25:07;96893.36;;;44.36;23.45
34065;BME280;20339;49.754;20.158;2022-07-29T07:27:40;96892.15;;;44.89;23.26
34065;BME280;20339;49.754;20.158;2022-07-29T07:30:13;96892.27;;;44.74;22.81
34065;BME280;20339;49.754;20.158;2022-07-29T07:32:44;96892.60;;;45.10;22.81
34065;BME280;20339;49.754;20.158;2022-07-29T07:35:16;96891.70;;;45.53;22.74
34065;BME280;20339;49.754;20.158;2022-07-29T07:37:49;96892.27;;;45.58;22.42
34065;BME280;20339;49.754;20.158;2022-07-29T07:40:22;96894.45;;;46.13;22.24
34065;BME280;20339;49.754;20.158;2022-07-29T07:42:58;96892.17;;;46.59;21.82
34065;BME280;20339;49.754;20.158;2022-07-29T07:45:40;96889.89;;;47.29;21.40
34065;BME280;20339;49.754;20.158;2022-07-29T07:48:19;96886.77;;;47.86;21.08
34065;BME280;20339;49.754;20.158;2022-07-29T07:50:53;96883.48;;;48.09;20.70
34065;BME280;20339;49.754;20.158;2022-07-29T07:53:25;96882.48;;;48.26;20.56
34065;BME280;20339;49.754;20.158;2022-07-29T07:55:58;96885.35;;;48.19;20.48
34065;BME280;20339;49.754;20.158;2022-07-29T07:58:31;96884.08;;;48.36;19.36
34065;BME280;20339;49.754;20.158;2022-07-29T08:01:08;96885.86;;;47.48;19.64
34065;BME280;20339;49.754;20.158;2022-07-29T08:03:41;96885.42;;;47.32;20.12
34065;BME280;20339;49.754;20.158;2022-07-29T08:06:17;96881.81;;;47.52;19.71
34065;BME280;20339;49.754;20.158;2022-07-29T08:08:51;96883.38;;;47.46;19.94
34065;BME280;20339;49.754;20.158;2022-07-29T08:11:29;96885.41;;;46.91;19.65
34065;BME280;20339;49.754;20.158;2022-07-29T08:14:03;96884.27;;;46.68;19.74
34065;BME280;20339;49.754;20.158;2022-07-29T08:16:41;96884.09;;;46.49;20.21
34065;BME280;20339;49.754;20.158;2022-07-29T08:19:15;96882.66;;;46.17;19.65
34065;BME280;20339;49.754;20.158;2022-07-29T08:21:51;96881.98;;;45.82;20.34
34065;BME280;20339;49.754;20.158;2022-07-29T08:24:26;96888.53;;;46.30;20.46
34065;BME280;20339;49.754;20.158;2022-07-29T08:27:23;96882.27;;;47.32;20.21
34065;BME280;20339;49.754;20.158;2022-07-29T08:30:08;96877.85;;;47.50;19.50
34065;BME280;20339;49.754;20.158;2022-07-29T08:32:42;96881.67;;;47.49;19.56
34065;BME280;20339;49.754;20.158;2022-07-29T08:35:16;96884.29;;;47.37;19.66
34065;BME280;20339;49.754;20.158;2022-07-29T08:37:51;96882.52;;;47.32;19.41
34065;BME280;20339;49.754;20.158;2022-07-29T08:40:25;96879.59;;;47.45;19.45
34065;BME280;20339;49.754;20.158;2022-07-29T08:42:58;96875.43;;;47.29;19.52
34065;BME280;20339;49.754;20.158;2022-07-29T08:45:45;96879.60;;;46.22;19.18
34065;BME280;20339;49.754;20.158;2022-07-29T08:48:19;96882.41;;;45.34;19.76
34065;BME280;20339;49.754;20.158;2022-07-29T08:50:55;96883.30;;;45.02;20.67
34065;BME280;20339;49.754;20.158;2022-07-29T08:53:28;96880.58;;;45.70;20.74
34065;BME280;20339;49.754;20.158;2022-07-29T08:56:04;96875.33;;;46.33;20.63
34065;BME280;20339;49.754;20.158;2022-07-29T08:58:37;96876.85;;;46.93;20.20
34065;BME280;20339;49.754;20.158;2022-07-29T09:01:08;96874.20;;;47.08;19.60
34065;BME280;20339;49.754;20.158;2022-07-29T09:03:43;96877.20;;;47.34;19.95
34065;BME280;20339;49.754;20.158;2022-07-29T09:06:17;96872.10;;;47.71;19.55
34065;BME280;20339;49.754;20.158;2022-07-29T09:08:49;96871.07;;;47.62;19.12
34065;BME280;20339;49.754;20.158;2022-07-29T09:11:20;96871.57;;;46.66;18.99
34065;BME280;20339;49.754;20.158;2022-07-29T09:13:51;96872.72;;;45.95;19.82
34065;BME280;20339;49.754;20.158;2022-07-29T09:16:23;96868.48;;;44.86;19.70
34065;BME280;20339;49.754;20.158;2022-07-29T09:18:54;96862.92;;;41.31;21.50
34065;BME280;20339;49.754;20.158;2022-07-29T09:21:25;96853.65;;;39.02;24.04
34065;BME280;20339;49.754;20.158;2022-07-29T09:24:49;96859.83;;;37.17;25.85
34065;BME280;20339;49.754;20.158;2022-07-29T09:27:24;96861.33;;;36.07;27.22
34065;BME280;20339;49.754;20.158;2022-07-29T09:30:03;96860.26;;;35.36;28.22
34065;BME280;20339;49.754;20.158;2022-07-29T09:32:55;96862.27;;;33.26;30.18
34065;BME280;20339;49.754;20.158;2022-07-29T09:35:29;96861.41;;;31.32;32.38
34065;BME280;20339;49.754;20.158;2022-07-29T09:38:11;96854.95;;;30.62;34.01
34065;BME280;20339;49.754;20.158;2022-07-29T09:40:42;96852.65;;;30.32;35.11
34065;BME280;20339;49.754;20.158;2022-07-29T09:43:28;96852.88;;;29.54;36.64
34065;BME280;20339;49.754;20.158;2022-07-29T09:46:11;96850.05;;;29.01;38.57
34065;BME280;20339;49.754;20.158;2022-07-29T09:48:43;96845.45;;;29.29;38.62
34065;BME280;20339;49.754;20.158;2022-07-29T09:55:10;96839.30;;;28.98;39.79
34065;BME280;20339;49.754;20.158;2022-07-29T09:57:48;96843.35;;;28.94;39.90
34065;BME280;20339;49.754;20.158;2022-07-29T10:00:27;96840.39;;;28.43;40.85
34065;BME280;20339;49.754;20.158;2022-07-29T10:03:04;96842.83;;;28.11;41.93
34065;BME280;20339;49.754;20.158;2022-07-29T10:05:37;96844.56;;;27.65;42.24
34065;BME280;20339;49.754;20.158;2022-07-29T10:08:30;96843.73;;;27.36;42.60
34065;BME280;20339;49.754;20.158;2022-07-29T10:11:18;96842.14;;;27.46;42.09
34065;BME280;20339;49.754;20.158;2022-07-29T10:13:51;96838.02;;;27.46;42.47
34065;BME280;20339;49.754;20.158;2022-07-29T10:16:28;96836.08;;;27.63;42.81
34065;BME280;20339;49.754;20.158;2022-07-29T10:19:09;96836.28;;;27.58;43.24
34065;BME280;20339;49.754;20.158;2022-07-29T10:21:42;96834.30;;;27.91;43.32
34065;BME280;20339;49.754;20.158;2022-07-29T10:24:16;96837.30;;;27.59;43.25
34065;BME280;20339;49.754;20.158;2022-07-29T10:26:51;96832.04;;;27.48;43.99
34065;BME280;20339;49.754;20.158;2022-07-29T10:29:30;96829.62;;;27.84;43.43
34065;BME280;20339;49.754;20.158;2022-07-29T10:32:13;96830.21;;;27.58;43.73
34065;BME280;20339;49.754;20.158;2022-07-29T10:35:06;96828.80;;;27.07;44.27
34065;BME280;20339;49.754;20.158;2022-07-29T10:37:56;96827.96;;;26.89;45.01
34065;BME280;20339;49.754;20.158;2022-07-29T10:40:49;96830.33;;;27.04;45.19
34065;BME280;20339;49.754;20.158;2022-07-29T10:43:48;96825.86;;;26.88;45.16
34065;BME280;20339;49.754;20.158;2022-07-29T10:46:25;96826.76;;;26.60;46.11
34065;BME280;20339;49.754;20.158;2022-07-29T10:49:16;96831.30;;;26.45;46.29
34065;BME280;20339;49.754;20.158;2022-07-29T10:51:57;96827.37;;;26.24;46.40
34065;BME280;20339;49.754;20.158;2022-07-29T10:54:42;96827.68;;;26.08;47.13
34065;BME280;20339;49.754;20.158;2022-07-29T10:57:25;96825.45;;;26.10;47.21
34065;BME280;20339;49.754;20.158;2022-07-29T11:00:30;96827.42;;;26.46;47.73
34065;BME280;20339;49.754;20.158;2022-07-29T11:03:05;96826.77;;;26.83;47.13
34065;BME280;20339;49.754;20.158;2022-07-29T11:05:56;96820.73;;;27.24;47.33
34065;BME280;20339;49.754;20.158;2022-07-29T11:08:28;96815.33;;;27.55;46.64
34065;BME280;20339;49.754;20.158;2022-07-29T11:14:08;96804.95;;;27.90;45.20
34065;BME280;20339;49.754;20.158;2022-07-29T11:17:02;96802.38;;;27.90;44.51
34065;BME280;20339;49.754;20.158;2022-07-29T11:19:35;96801.11;;;27.78;44.70
34065;BME280;20339;49.754;20.158;2022-07-29T11:22:30;96799.27;;;27.93;44.31
34065;BME280;20339;49.754;20.158;2022-07-29T11:25:20;96796.09;;;28.04;44.27
34065;BME280;20339;49.754;20.158;2022-07-29T11:28:10;96788.81;;;28.33;44.90
34065;BME280;20339;49.754;20.158;2022-07-29T11:30:53;96794.11;;;28.44;43.49
34065;BME280;20339;49.754;20.158;2022-07-29T11:33:35;96789.25;;;28.12;43.80
34065;BME280;20339;49.754;20.158;2022-07-29T11:36:16;96788.29;;;27.87;44.71
34065;BME280;20339;49.754;20.158;2022-07-29T11:38:50;96781.92;;;28.09;44.54
34065;BME280;20339;49.754;20.158;2022-07-29T11:41:24;96776.19;;;28.27;44.57
34065;BME280;20339;49.754;20.158;2022-07-29T11:43:57;96774.87;;;28.48;44.36
34065;BME280;20339;49.754;20.158;2022-07-29T11:46:48;96777.21;;;28.45;43.93
34065;BME280;20339;49.754;20.158;2022-07-29T11:49:23;96773.95;;;28.31;43.83
34065;BME280;20339;49.754;20.158;2022-07-29T11:52:00;96770.35;;;28.38;44.63
34065;BME280;20339;49.754;20.158;2022-07-29T11:54:36;96768.46;;;28.55;43.93
34065;BME280;20339;49.754;20.158;2022-07-29T11:57:10;96767.55;;;28.38;43.79
34065;BME280;20339;49.754;20.158;2022-07-29T11:59:46;96760.92;;;28.42;44.20
34065;BME280;20339;49.754;20.158;2022-07-29T12:02:27;96764.70;;;28.67;44.39
34065;BME280;20339;49.754;20.158;2022-07-29T12:05:20;96760.01;;;28.77;43.28
34065;BME280;20339;49.754;20.158;2022-07-29T12:07:52;96764.34;;;28.35;42.31
34065;BME280;20339;49.754;20.158;2022-07-29T12:10:31;96759.66;;;28.21;44.11
34065;BME280;20339;49.754;20.158;2022-07-29T12:13:05;96758.98;;;28.46;43.44
34065;BME280;20339;49.754;20.158;2022-07-29T12:15:37;96755.83;;;28.61;43.87
34065;BME280;20339;49.754;20.158;2022-07-29T12:18:21;96753.30;;;28.83;43.68
34065;BME280;20339;49.754;20.158;2022-07-29T12:21:01;96748.61;;;28.85;42.76
34065;BME280;20339;49.754;20.158;2022-07-29T12:23:34;96749.31;;;28.90;42.94
34065;BME280;20339;49.754;20.158;2022-07-29T12:26:12;96754.23;;;28.82;41.71
34065;BME280;20339;49.754;20.158;2022-07-29T12:28:47;96754.59;;;28.59;41.96
34065;BME280;20339;49.754;20.158;2022-07-29T12:31:21;96747.11;;;28.53;42.72
34065;BME280;20339;49.754;20.158;2022-07-29T12:33:56;96745.84;;;28.67;42.87
34065;BME280;20339;49.754;20.158;2022-07-29T12:36:30;96743.64;;;28.78;42.43
34065;BME280;20339;49.754;20.158;2022-07-29T12:39:03;96739.09;;;28.83;41.90
34065;BME280;20339;49.754;20.158;2022-07-29T12:41:40;96733.17;;;28.85;42.38
34065;BME280;20339;49.754;20.158;2022-07-29T12:44:16;96727.88;;;28.89;41.08
34065;BME280;20339;49.754;20.158;2022-07-29T12:47:03;96723.66;;;28.85;41.83
34065;BME280;20339;49.754;20.158;2022-07-29T12:49:36;96717.98;;;28.90;41.61
34065;BME280;20339;49.754;20.158;2022-07-29T12:52:26;96711.10;;;28.95;42.36
34065;BME280;20339;49.754;20.158;2022-07-29T12:55:03;96712.38;;;29.07;42.30
34065;BME280;20339;49.754;20.158;2022-07-29T12:57:50;96710.53;;;28.70;40.79
34065;BME280;20339;49.754;20.158;2022-07-29T13:00:26;96712.07;;;28.20;41.73
34065;BME280;20339;49.754;20.158;2022-07-29T13:03:00;96702.89;;;27.99;41.74
34065;BME280;20339;49.754;20.158;2022-07-29T13:05:45;96706.38;;;27.93;42.33
34065;BME280;20339;49.754;20.158;2022-07-29T13:08:22;96701.48;;;28.03;42.67
34065;BME280;20339;49.754;20.158;2022-07-29T13:10:56;96697.74;;;28.22;43.45
34065;BME280;20339;49.754;20.158;2022-07-29T13:13:29;96693.59;;;28.49;43.21
34065;BME280;20339;49.754;20.158;2022-07-29T13:16:09;96692.77;;;28.66;42.61
34065;BME280;20339;49.754;20.158;2022-07-29T13:18:45;96690.60;;;28.60;42.01
34065;BME280;20339;49.754;20.158;2022-07-29T13:21:20;96686.44;;;28.31;42.14
34065;BME280;20339;49.754;20.158;2022-07-29T13:23:56;96681.92;;;28.30;42.95
34065;BME280;20339;49.754;20.158;2022-07-29T13:26:31;96678.17;;;28.19;41.87
34065;BME280;20339;49.754;20.158;2022-07-29T13:29:03;96680.21;;;28.26;43.08
34065;BME280;20339;49.754;20.158;2022-07-29T13:31:37;96677.70;;;28.43;42.53
34065;BME280;20339;49.754;20.158;2022-07-29T13:34:11;96674.63;;;28.56;42.96
34065;BME280;20339;49.754;20.158;2022-07-29T13:36:47;96679.41;;;28.74;42.53
34065;BME280;20339;49.754;20.158;2022-07-29T13:39:26;96678.06;;;28.78;41.78
34065;BME280;20339;49.754;20.158;2022-07-29T13:42:00;96674.58;;;28.40;41.11